Garuhape, Argentina
Current Conditions -  °F | °C
As of 6:00 PM on Tuesday 25 Nov 2014 (Local Time) from SGEN Reporting Station
Broken Clouds Broken Clouds  
Wind Chill: 77°   Ceiling: 3300
Heat Index: 79°   Visibility: 6mi
Dew Point: 68°   Wind: 18mph
Humidity: 74%   Direction: 240°WSW
Pressure: 29.74"   Gusts: NA
Location:  26.86°S, 55.02°W
Report Text: SGEN 252100Z 24016KT 9999 BKN033 25/20 Q1007
Loading
Personal Weather Stations






























Interactive Weather Map New forecast layout! Learn more

10-Day Weather Forecast

Advertisements
Track Severe Weather on mobile